Archival Weather

Abadan

Abadan, Iran (OIAA)

Report from: Monday, July 18, 2022 4:00 AM UTC
Current time: Tuesday, July 16, 2024 10:12 AM UTC

Current weather – Weather history – Daily summaries
Weather forecast

Temperature34.0°C (93.2°F)
Heat index31.9°C (89.4°F)
Dew point7.0°C (44.6°F)
Winds 6 kts (3.1 m/s, 6.9 mph) Northwest (320°)
Clouds Sky clear
Altimeter29.47 in.Hg (998 mB)
Relative humidity19 %
Density altitude2,819 ft. (859 m)
Remarks Ceiling and visibility OK
Flight conditions Visual Meteorological Conditions
Raw dataOIAA 180400Z 32006KT CAVOK 34/07 Q0998
An error has occurred. This application may no longer respond until reloaded. Reload 🗙